DW2458 Weather Reports


Display with metric or nautical units.
time (UTC)temp
F
wind
direction
speed
MPH
gust
MPH
rain 1hr
in
rain 24hr
in
rain mn
in
humidity
%
barometer
mb
20190627060013 60 290 3.0 9.0 0.00 0.00 0.00 74 1016.6
20190627054513 60 288 2.0 6.0 0.00 0.00 0.00 74 1016.7
20190627053016 60 283 4.0 7.0 0.00 0.00 0.00 74 1016.6
20190627051526 59 313 3.0 6.0 0.00 0.00 0.00 74 1016.7
20190627050006 59 287 4.0 9.0 0.00 0.00 0.00 73 1016.6
20190627044505 59 259 3.0 9.0 0.00 0.00 0.00 71 1016.5
20190627043003 60 263 3.0 9.0 0.00 0.00 0.00 70 1016.3
20190627041707 60 300 5.0 11.0 0.00 0.00 0.00 69 1016.0
20190627040322 61 281 3.0 10.0 0.00 0.00 0.00 67 1015.9
20190627034717 62 274 5.0 10.0 0.00 0.00 0.00 66 1015.6
20190627033157 62 315 5.0 10.0 0.00 0.00 0.00 64 1015.7
20190627031652 63 278 4.0 13.0 0.00 0.00 0.00 63 1015.6
20190627030205 64 275 4.0 16.0 0.00 0.00 0.00 60 1015.4
20190627024707 65 304 6.0 13.0 0.00 0.00 0.00 59 1015.3
20190627023130 66 283 6.0 14.0 0.00 0.00 0.00 59 1015.0
20190627021644 67 290 7.0 13.0 0.00 0.00 0.00 57 1015.0
20190627020114 67 249 8.0 14.0 0.00 0.00 0.00 54 1014.8
20190627014645 68 316 7.0 15.0 0.00 0.00 0.00 56 1014.7
20190627013137 69 330 7.0 14.0 0.00 0.00 0.00 54 1014.5
20190627011733 69 317 5.0 17.0 0.00 0.00 0.00 53 1014.5
20190627010138 70 282 9.0 18.0 0.00 0.00 0.00 53 1014.4
20190627004635 71 271 8.0 17.0 0.00 0.00 0.00 55 1014.3
20190627003120 71 341 5.0 14.0 0.00 0.00 0.00 56 1014.4
20190627001608 71 318 6.0 16.0 0.00 0.00 0.00 56 1014.4
20190627000156 71 13 2.0 16.0 0.00 0.00 0.00 56 1014.4
20190626234646 72 313 6.0 14.0 0.00 0.00 0.00 55 1014.4
20190626233135 72 321 4.0 14.0 0.00 0.00 0.00 56 1014.4
20190626231647 74 350 7.0 14.0 0.00 0.00 0.00 55 1014.5
20190626230136 74 322 3.0 11.0 0.00 0.00 0.00 55 1014.5
20190626224807 73 315 4.0 13.0 0.00 0.00 0.00 56 1014.6
20190626223151 72 19 3.0 17.0 0.00 0.00 0.00 62 1014.5
20190626221623 72 347 8.0 15.0 0.00 0.00 0.00 61 1014.6
20190626220101 72 334 7.0 14.0 0.00 0.00 0.00 61 1014.6
20190626214615 72 5 7.0 16.0 0.00 0.00 0.00 63 1014.6
20190626213205 72 306 4.0 16.0 0.00 0.00 0.00 63 1014.6
20190626211609 73 292 5.0 16.0 0.00 0.00 0.00 60 1014.6
20190626210150 73 326 8.0 15.0 0.00 0.00 0.00 59 1014.4
20190626204624 73 337 8.0 16.0 0.00 0.00 0.00 61 1014.5
20190626203120 73 360 5.0 13.0 0.00 0.00 0.00 60 1014.4
20190626201601 73 24 3.0 13.0 0.00 0.00 0.00 61 1014.4
20190626200049 73 340 5.0 13.0 0.00 0.00 0.00 60 1014.3
20190626194620 73 336 6.0 14.0 0.00 0.00 0.00 61 1014.3
20190626193037 73 15 2.0 14.0 0.00 0.00 0.00 60 1014.4
20190626191640 72 5 8.0 15.0 0.00 0.00 0.00 61 1014.5
20190626184533 72 9 3.0 15.0 0.00 0.00 0.00 61 1014.3
20190626183057 72 340 4.0 13.0 0.00 0.00 0.00 61 1014.3
20190626181531 71 51 5.0 12.0 0.00 0.00 0.00 61 1014.3
20190626180032 71 13 2.0 9.0 0.00 0.00 0.00 60 1014.3
20190626174621 71 332 1.0 9.0 0.00 0.00 0.00 62 1014.0
20190626173016 70 17 3.0 9.0 0.00 0.00 0.00 62 1013.9
20190626171511 71 286 1.0 8.0 0.00 0.00 0.00 58 1014.0
20190626170013 70 340 4.0 8.0 0.00 0.00 0.00 59 1013.8
20190626164644 70 295 2.0 7.0 0.00 0.00 0.00 57 1013.9
20190626163217 69 60 0.0 5.0 0.00 0.00 0.00 60 1014.0
20190626161749 68 286 0.0 4.0 0.00 0.00 0.00 57 1014.1
20190626160110 67 321 0.0 8.0 0.00 0.00 0.00 59 1014.0
20190626154608 66 12 3.0 6.0 0.00 0.00 0.00 60 1014.0
20190626153136 65 346 0.0 6.0 0.00 0.00 0.00 62 1013.9
20190626151549 64 332 3.0 7.0 0.00 0.00 0.00 63 1013.9
20190626150133 64 311 1.0 6.0 0.00 0.00 0.00 64 1013.9
20190626144629 63 318 0.0 4.0 0.00 0.00 0.00 66 1013.6
20190626143041 61 319 1.0 6.0 0.00 0.00 0.00 68 1013.5
20190626141553 59 5 1.0 6.0 0.00 0.00 0.00 71 1013.4
20190626140041 56 325 0.0 1.0 0.00 0.00 0.00 75 1013.4
20190626134514 54 324 0.0 0.0 0.00 0.00 0.00 76 1013.3
20190626133016 53 324 0.0 0.0 0.00 0.00 0.00 77 1013.3
20190626131510 52 324 0.0 0.0 0.00 0.00 0.00 77 1013.2
20190626130014 52 324 0.0 0.0 0.00 0.00 0.00 77 1013.0
20190626124505 52 324 0.0 0.0 0.00 0.00 0.00 76 1012.8
20190626123003 53 324 0.0 0.0 0.00 0.00 0.00 76 1012.6
20190626121507 53 324 0.0 0.0 0.00 0.00 0.00 76 1012.4
20190626120421 53 324 0.0 0.0 0.00 0.00 0.00 76 1012.4
20190626114614 53 324 0.0 0.0 0.00 0.00 0.00 76 1012.2
20190626113234 54 324 0.0 0.0 0.00 0.00 0.00 76 1012.1
20190626111707 53 324 0.0 0.0 0.00 0.00 0.00 76 1012.1
20190626110135 53 324 0.0 0.0 0.00 0.00 0.00 76 1011.9
20190626104638 54 324 0.0 0.0 0.00 0.00 0.00 76 1012.0
20190626103118 54 324 0.0 0.0 0.00 0.00 0.00 76 1011.9
20190626101557 54 324 0.0 0.0 0.00 0.00 0.00 76 1011.9
20190626100144 55 324 0.0 0.0 0.00 0.00 0.00 75 1012.0
20190626094658 55 324 0.0 0.0 0.00 0.00 0.00 75 1012.0
20190626093154 54 324 0.0 0.0 0.00 0.00 0.00 75 1012.0
20190626091616 55 324 0.0 0.0 0.00 0.00 0.00 75 1012.0
20190626090229 55 324 0.0 0.0 0.00 0.00 0.00 75 1011.9
20190626084638 56 324 0.0 0.0 0.00 0.00 0.00 74 1011.9
20190626083139 56 324 0.0 0.0 0.00 0.00 0.00 74 1011.8
20190626081617 56 324 0.0 0.0 0.00 0.00 0.00 73 1011.9
20190626080125 57 324 0.0 0.0 0.00 0.00 0.00 71 1011.9
20190626074556 57 324 0.0 0.0 0.00 0.00 0.00 70 1012.0
20190626073103 57 324 0.0 0.0 0.00 0.00 0.00 69 1012.0
20190626071557 58 324 0.0 0.0 0.00 0.00 0.00 66 1012.0
20190626070043 59 324 0.0 0.0 0.00 0.00 0.00 61 1012.0
20190626064557 60 324 0.0 0.0 0.00 0.00 0.00 58 1011.9
20190626063043 60 323 0.0 0.0 0.00 0.00 0.00 58 1012.1
20190626061625 59 323 0.0 0.0 0.00 0.00 0.00 59 1012.1